Burntisland, United Kingdom

1:46 AM BST on August 28, 2015 (GMT +0100)
Kirkcaldy | | Change Station
CLOSE
Current Station
Personal Weather Station
Location: Kirkcaldy, SCOTLAND
Elevation: 115 ft
Nearby Weather Stations

Elev 115 ft 56.12 °N, 3.16 °W | Updated 10 seconds ago

Clear
Clear
53.2 °F
Feels Like 53.2 °F
N
0.0
Wind Variable Wind from SE
Gusts 8.0 mph

Today
High -- | Low -- °F
--% Chance of Precip.
Yesterday
High -- | Low -- °F
Precip. -- in
6:08 AM 8:18 PM
Waxing Gibbous, 96% visible
Pressure 29.62 in
Visibility -9999.0 miles
Clouds
Dew Point 50 °F
Humidity 88%
Rainfall 0.00 in
Snow Depth Not available.
UV Not available.
Pollen Not available.
Air Quality Not available.
Flu Activity Not available.
METAR EGPH 280020Z 26005KT CAVOK 11/09 Q1003
Pressure 29.62 in
Visibility -9999.0 miles
Clouds
Dew Point 50 °F
Humidity 88%
Rainfall 0.00 in
Snow Depth Not available.
UV Not available.
Pollen Not available.
Air Quality Not available.
Flu Activity Not available.
METAR EGPH 280020Z 26005KT CAVOK 11/09 Q1003

10-Day Weather Forecast

×

Almanac

Astronomy

Aug. 28, 2015 Rise Set
Actual Time
Civil Twilight
Nautical Twilight
Astronomical Twilight
Moon
Length of Visible Light
Length of Day
Tomorrow will be .
, % of the Moon is Illuminated

Today's Extremes

Country Highs Country Lows

Community

WunderPhotos

Upload Photos

1,850,275 photos uploaded!

WunderBlogs® & News

Nearby

Air Quality

  Air Quality AQ Index Pollutant
Not available.

Snow Depth

Station Depth Elevation

Earthquake Activity

City Distance Mag. Time & Date
Minimum magnitude displayed is 2.5.

Coastal Water Temperatures

Place Temperature

Stations

Nearby Weather Stations

Station Location Temp. Windchill Dew Point Humidity Wind Precip. Elev Updated Type